sensor_id;sensor_type;location;lat;lon;timestamp;temperature;humidity
28374;DHT22;15616;40.148;-102.718;2022-12-07T00:01:22;20.20;48.40
28374;DHT22;15616;40.148;-102.718;2022-12-07T00:03:50;20.20;48.30
28374;DHT22;15616;40.148;-102.718;2022-12-07T00:06:17;20.20;48.30
28374;DHT22;15616;40.148;-102.718;2022-12-07T00:08:43;20.20;48.30
28374;DHT22;15616;40.148;-102.718;2022-12-07T00:11:15;20.20;48.30
28374;DHT22;15616;40.148;-102.718;2022-12-07T00:13:42;20.20;48.30
28374;DHT22;15616;40.148;-102.718;2022-12-07T00:16:10;20.20;48.30
28374;DHT22;15616;40.148;-102.718;2022-12-07T00:18:37;20.20;48.30
28374;DHT22;15616;40.148;-102.718;2022-12-07T00:21:15;20.20;48.30
28374;DHT22;15616;40.148;-102.718;2022-12-07T00:23:42;20.20;48.30
28374;DHT22;15616;40.148;-102.718;2022-12-07T00:26:22;20.20;48.30
28374;DHT22;15616;40.148;-102.718;2022-12-07T00:28:52;20.20;48.30
28374;DHT22;15616;40.148;-102.718;2022-12-07T00:31:20;20.20;48.40
28374;DHT22;15616;40.148;-102.718;2022-12-07T00:33:46;20.20;48.40
28374;DHT22;15616;40.148;-102.718;2022-12-07T00:36:16;20.20;49.10
28374;DHT22;15616;40.148;-102.718;2022-12-07T00:38:42;20.20;48.40
28374;DHT22;15616;40.148;-102.718;2022-12-07T00:41:16;20.20;48.40
28374;DHT22;15616;40.148;-102.718;2022-12-07T00:43:44;20.20;49.10
28374;DHT22;15616;40.148;-102.718;2022-12-07T00:46:11;20.10;48.40
28374;DHT22;15616;40.148;-102.718;2022-12-07T00:48:37;20.20;48.50
28374;DHT22;15616;40.148;-102.718;2022-12-07T00:51:04;20.20;48.40
28374;DHT22;15616;40.148;-102.718;2022-12-07T00:53:31;20.20;48.40
28374;DHT22;15616;40.148;-102.718;2022-12-07T00:56:05;20.20;48.40
28374;DHT22;15616;40.148;-102.718;2022-12-07T00:58:31;20.20;48.30
28374;DHT22;15616;40.148;-102.718;2022-12-07T01:01:00;20.20;48.30
28374;DHT22;15616;40.148;-102.718;2022-12-07T01:03:27;20.20;48.30
28374;DHT22;15616;40.148;-102.718;2022-12-07T01:05:54;20.20;48.30
28374;DHT22;15616;40.148;-102.718;2022-12-07T01:08:21;20.20;48.30
28374;DHT22;15616;40.148;-102.718;2022-12-07T01:10:47;20.20;48.30
28374;DHT22;15616;40.148;-102.718;2022-12-07T01:13:14;20.20;48.30
28374;DHT22;15616;40.148;-102.718;2022-12-07T01:15:44;20.20;48.30
28374;DHT22;15616;40.148;-102.718;2022-12-07T01:18:11;20.20;48.30
28374;DHT22;15616;40.148;-102.718;2022-12-07T01:20:37;20.20;48.30
28374;DHT22;15616;40.148;-102.718;2022-12-07T01:23:03;20.20;48.40
28374;DHT22;15616;40.148;-102.718;2022-12-07T01:25:29;20.20;48.40
28374;DHT22;15616;40.148;-102.718;2022-12-07T01:27:55;20.20;48.40
28374;DHT22;15616;40.148;-102.718;2022-12-07T01:30:21;20.20;48.40
28374;DHT22;15616;40.148;-102.718;2022-12-07T01:32:47;20.10;48.40
28374;DHT22;15616;40.148;-102.718;2022-12-07T01:35:13;20.10;48.40
28374;DHT22;15616;40.148;-102.718;2022-12-07T01:37:39;20.10;48.40
28374;DHT22;15616;40.148;-102.718;2022-12-07T01:40:06;20.10;48.40
28374;DHT22;15616;40.148;-102.718;2022-12-07T01:42:34;20.20;48.50
28374;DHT22;15616;40.148;-102.718;2022-12-07T01:47:50;20.20;48.40
28374;DHT22;15616;40.148;-102.718;2022-12-07T01:50:17;20.20;48.50
28374;DHT22;15616;40.148;-102.718;2022-12-07T01:52:45;20.20;48.50
28374;DHT22;15616;40.148;-102.718;2022-12-07T01:55:15;20.20;48.40
28374;DHT22;15616;40.148;-102.718;2022-12-07T01:57:45;20.20;48.40
28374;DHT22;15616;40.148;-102.718;2022-12-07T02:00:13;20.20;48.40
28374;DHT22;15616;40.148;-102.718;2022-12-07T02:05:27;20.20;48.40
28374;DHT22;15616;40.148;-102.718;2022-12-07T02:07:55;20.20;48.40
28374;DHT22;15616;40.148;-102.718;2022-12-07T02:10:30;20.20;48.40
28374;DHT22;15616;40.148;-102.718;2022-12-07T02:13:00;20.20;48.40
28374;DHT22;15616;40.148;-102.718;2022-12-07T02:15:48;20.10;48.40
28374;DHT22;15616;40.148;-102.718;2022-12-07T02:24:13;20.10;48.40
28374;DHT22;15616;40.148;-102.718;2022-12-07T02:32:19;20.10;48.50
28374;DHT22;15616;40.148;-102.718;2022-12-07T02:42:58;20.20;48.50
28374;DHT22;15616;40.148;-102.718;2022-12-07T02:45:31;20.20;48.60
28374;DHT22;15616;40.148;-102.718;2022-12-07T02:47:59;20.20;48.50
28374;DHT22;15616;40.148;-102.718;2022-12-07T02:50:26;20.20;48.50
28374;DHT22;15616;40.148;-102.718;2022-12-07T02:52:52;20.10;48.40
28374;DHT22;15616;40.148;-102.718;2022-12-07T02:55:21;20.10;48.50
28374;DHT22;15616;40.148;-102.718;2022-12-07T03:00:20;20.10;48.40
28374;DHT22;15616;40.148;-102.718;2022-12-07T03:03:04;20.10;48.40
28374;DHT22;15616;40.148;-102.718;2022-12-07T03:08:56;20.20;48.50
28374;DHT22;15616;40.148;-102.718;2022-12-07T03:11:55;20.10;48.50
28374;DHT22;15616;40.148;-102.718;2022-12-07T03:14:31;20.10;48.40
28374;DHT22;15616;40.148;-102.718;2022-12-07T03:17:21;20.10;48.60
28374;DHT22;15616;40.148;-102.718;2022-12-07T03:19:52;20.10;48.50
28374;DHT22;15616;40.148;-102.718;2022-12-07T03:22:20;20.10;48.60
28374;DHT22;15616;40.148;-102.718;2022-12-07T03:24:53;20.10;48.60
28374;DHT22;15616;40.148;-102.718;2022-12-07T03:27:41;20.10;48.60
28374;DHT22;15616;40.148;-102.718;2022-12-07T03:30:13;20.10;48.50
28374;DHT22;15616;40.148;-102.718;2022-12-07T03:32:55;20.20;48.60
28374;DHT22;15616;40.148;-102.718;2022-12-07T03:35:37;20.20;48.50
28374;DHT22;15616;40.148;-102.718;2022-12-07T03:38:18;20.20;48.50
28374;DHT22;15616;40.148;-102.718;2022-12-07T03:41:08;20.20;48.50
28374;DHT22;15616;40.148;-102.718;2022-12-07T03:43:36;20.20;48.40
28374;DHT22;15616;40.148;-102.718;2022-12-07T03:53:59;20.20;48.40
28374;DHT22;15616;40.148;-102.718;2022-12-07T03:56:28;20.20;48.50
28374;DHT22;15616;40.148;-102.718;2022-12-07T03:58:54;20.20;48.50
28374;DHT22;15616;40.148;-102.718;2022-12-07T04:01:22;20.10;48.40
28374;DHT22;15616;40.148;-102.718;2022-12-07T04:03:48;20.10;48.40
28374;DHT22;15616;40.148;-102.718;2022-12-07T04:06:14;20.10;48.40
28374;DHT22;15616;40.148;-102.718;2022-12-07T04:08:40;20.10;48.50
28374;DHT22;15616;40.148;-102.718;2022-12-07T04:11:05;20.10;48.50
28374;DHT22;15616;40.148;-102.718;2022-12-07T04:13:31;20.10;48.50
28374;DHT22;15616;40.148;-102.718;2022-12-07T04:16:17;20.10;48.50
28374;DHT22;15616;40.148;-102.718;2022-12-07T04:18:43;20.10;48.50
28374;DHT22;15616;40.148;-102.718;2022-12-07T04:21:09;20.10;48.50
28374;DHT22;15616;40.148;-102.718;2022-12-07T04:23:35;20.10;48.50
28374;DHT22;15616;40.148;-102.718;2022-12-07T04:26:01;20.10;48.50
28374;DHT22;15616;40.148;-102.718;2022-12-07T04:28:27;20.10;48.50
28374;DHT22;15616;40.148;-102.718;2022-12-07T04:30:53;20.10;48.50
28374;DHT22;15616;40.148;-102.718;2022-12-07T04:33:19;20.10;48.50
28374;DHT22;15616;40.148;-102.718;2022-12-07T04:35:45;20.10;48.60
28374;DHT22;15616;40.148;-102.718;2022-12-07T04:38:10;20.10;48.60
28374;DHT22;15616;40.148;-102.718;2022-12-07T04:40:37;20.10;48.60
28374;DHT22;15616;40.148;-102.718;2022-12-07T04:43:03;20.20;48.50
28374;DHT22;15616;40.148;-102.718;2022-12-07T04:45:30;20.10;48.50
28374;DHT22;15616;40.148;-102.718;2022-12-07T04:47:56;20.10;48.50
28374;DHT22;15616;40.148;-102.718;2022-12-07T04:50:22;20.10;48.50
28374;DHT22;15616;40.148;-102.718;2022-12-07T04:52:48;20.20;48.50
28374;DHT22;15616;40.148;-102.718;2022-12-07T04:55:14;20.10;48.50
28374;DHT22;15616;40.148;-102.718;2022-12-07T04:57:40;20.10;48.50
28374;DHT22;15616;40.148;-102.718;2022-12-07T05:00:06;20.10;48.40
28374;DHT22;15616;40.148;-102.718;2022-12-07T05:02:32;20.10;48.50
28374;DHT22;15616;40.148;-102.718;2022-12-07T05:04:58;20.10;48.50
28374;DHT22;15616;40.148;-102.718;2022-12-07T05:07:24;20.10;48.50
28374;DHT22;15616;40.148;-102.718;2022-12-07T05:09:50;20.10;48.50
28374;DHT22;15616;40.148;-102.718;2022-12-07T05:12:16;20.10;48.50
28374;DHT22;15616;40.148;-102.718;2022-12-07T05:14:42;20.10;48.50
28374;DHT22;15616;40.148;-102.718;2022-12-07T05:17:07;20.10;48.50
28374;DHT22;15616;40.148;-102.718;2022-12-07T05:19:33;20.10;48.50
28374;DHT22;15616;40.148;-102.718;2022-12-07T05:21:59;20.10;48.50
28374;DHT22;15616;40.148;-102.718;2022-12-07T05:24:25;20.10;48.50
28374;DHT22;15616;40.148;-102.718;2022-12-07T05:26:51;20.10;48.50
28374;DHT22;15616;40.148;-102.718;2022-12-07T05:29:17;20.10;48.50
28374;DHT22;15616;40.148;-102.718;2022-12-07T05:31:44;20.10;48.50
28374;DHT22;15616;40.148;-102.718;2022-12-07T05:34:10;20.10;48.50
28374;DHT22;15616;40.148;-102.718;2022-12-07T05:36:37;20.10;48.50
28374;DHT22;15616;40.148;-102.718;2022-12-07T05:39:03;20.10;48.50
28374;DHT22;15616;40.148;-102.718;2022-12-07T05:41:29;20.10;48.60
28374;DHT22;15616;40.148;-102.718;2022-12-07T05:44:13;20.10;48.50
28374;DHT22;15616;40.148;-102.718;2022-12-07T05:46:39;20.10;48.60
28374;DHT22;15616;40.148;-102.718;2022-12-07T05:49:05;20.10;48.50
28374;DHT22;15616;40.148;-102.718;2022-12-07T05:51:31;20.10;48.50
28374;DHT22;15616;40.148;-102.718;2022-12-07T05:53:57;20.10;48.50
28374;DHT22;15616;40.148;-102.718;2022-12-07T05:56:23;20.20;48.50
28374;DHT22;15616;40.148;-102.718;2022-12-07T05:58:49;20.10;48.40
28374;DHT22;15616;40.148;-102.718;2022-12-07T06:01:33;20.10;48.40
28374;DHT22;15616;40.148;-102.718;2022-12-07T06:03:59;20.10;48.50
28374;DHT22;15616;40.148;-102.718;2022-12-07T06:06:25;20.10;48.50
28374;DHT22;15616;40.148;-102.718;2022-12-07T06:08:51;20.10;48.50
28374;DHT22;15616;40.148;-102.718;2022-12-07T06:11:17;20.10;48.50
28374;DHT22;15616;40.148;-102.718;2022-12-07T06:14:01;20.10;48.40
28374;DHT22;15616;40.148;-102.718;2022-12-07T06:16:27;20.10;48.40
28374;DHT22;15616;40.148;-102.718;2022-12-07T06:18:53;20.10;48.50
28374;DHT22;15616;40.148;-102.718;2022-12-07T06:21:19;20.10;48.50
28374;DHT22;15616;40.148;-102.718;2022-12-07T06:23:45;20.10;48.50
28374;DHT22;15616;40.148;-102.718;2022-12-07T06:26:13;20.10;48.50
28374;DHT22;15616;40.148;-102.718;2022-12-07T06:28:39;20.20;48.50
28374;DHT22;15616;40.148;-102.718;2022-12-07T06:31:06;20.20;48.40
28374;DHT22;15616;40.148;-102.718;2022-12-07T06:33:33;20.20;48.40
28374;DHT22;15616;40.148;-102.718;2022-12-07T06:35:59;20.20;48.30
28374;DHT22;15616;40.148;-102.718;2022-12-07T06:38:25;20.20;48.30
28374;DHT22;15616;40.148;-102.718;2022-12-07T06:40:51;20.20;48.30
28374;DHT22;15616;40.148;-102.718;2022-12-07T06:43:17;20.30;48.30
28374;DHT22;15616;40.148;-102.718;2022-12-07T06:45:43;20.30;48.20
28374;DHT22;15616;40.148;-102.718;2022-12-07T06:48:09;20.30;48.20
28374;DHT22;15616;40.148;-102.718;2022-12-07T06:50:35;20.30;48.20
28374;DHT22;15616;40.148;-102.718;2022-12-07T06:53:01;20.30;48.10
28374;DHT22;15616;40.148;-102.718;2022-12-07T06:55:27;20.30;48.00
28374;DHT22;15616;40.148;-102.718;2022-12-07T06:57:53;20.30;48.00
28374;DHT22;15616;40.148;-102.718;2022-12-07T07:00:19;20.30;48.00
28374;DHT22;15616;40.148;-102.718;2022-12-07T07:02:45;20.30;48.70
28374;DHT22;15616;40.148;-102.718;2022-12-07T07:05:11;20.30;48.00
28374;DHT22;15616;40.148;-102.718;2022-12-07T07:07:37;20.30;48.00
28374;DHT22;15616;40.148;-102.718;2022-12-07T07:10:03;20.30;48.00
28374;DHT22;15616;40.148;-102.718;2022-12-07T07:12:29;20.30;48.00
28374;DHT22;15616;40.148;-102.718;2022-12-07T07:14:55;20.30;48.00
28374;DHT22;15616;40.148;-102.718;2022-12-07T07:17:22;20.30;48.00
28374;DHT22;15616;40.148;-102.718;2022-12-07T07:19:48;20.30;47.90
28374;DHT22;15616;40.148;-102.718;2022-12-07T07:22:13;20.20;47.90
28374;DHT22;15616;40.148;-102.718;2022-12-07T07:24:39;20.20;48.00
28374;DHT22;15616;40.148;-102.718;2022-12-07T07:27:05;20.20;48.00
28374;DHT22;15616;40.148;-102.718;2022-12-07T07:29:31;20.20;48.00
28374;DHT22;15616;40.148;-102.718;2022-12-07T07:31:57;20.20;48.10
28374;DHT22;15616;40.148;-102.718;2022-12-07T07:34:23;20.20;48.10
28374;DHT22;15616;40.148;-102.718;2022-12-07T07:36:49;20.30;48.10
28374;DHT22;15616;40.148;-102.718;2022-12-07T07:39:15;20.20;48.00
28374;DHT22;15616;40.148;-102.718;2022-12-07T07:41:41;20.30;48.00
28374;DHT22;15616;40.148;-102.718;2022-12-07T07:44:07;20.30;47.90
28374;DHT22;15616;40.148;-102.718;2022-12-07T07:46:33;20.30;47.70
28374;DHT22;15616;40.148;-102.718;2022-12-07T07:48:58;20.30;47.70
28374;DHT22;15616;40.148;-102.718;2022-12-07T07:51:24;20.40;47.60
28374;DHT22;15616;40.148;-102.718;2022-12-07T07:53:50;20.40;47.50
28374;DHT22;15616;40.148;-102.718;2022-12-07T07:56:16;20.40;47.50
28374;DHT22;15616;40.148;-102.718;2022-12-07T07:58:42;20.50;47.50
28374;DHT22;15616;40.148;-102.718;2022-12-07T08:01:08;20.50;47.50
28374;DHT22;15616;40.148;-102.718;2022-12-07T08:03:35;20.50;47.40
28374;DHT22;15616;40.148;-102.718;2022-12-07T08:06:04;20.50;47.40
28374;DHT22;15616;40.148;-102.718;2022-12-07T08:08:31;20.50;47.40
28374;DHT22;15616;40.148;-102.718;2022-12-07T08:10:57;20.50;47.40
28374;DHT22;15616;40.148;-102.718;2022-12-07T08:13:26;20.50;47.40
28374;DHT22;15616;40.148;-102.718;2022-12-07T08:15:52;20.50;47.40
28374;DHT22;15616;40.148;-102.718;2022-12-07T08:18:18;20.50;47.50
28374;DHT22;15616;40.148;-102.718;2022-12-07T08:20:44;20.50;47.50
28374;DHT22;15616;40.148;-102.718;2022-12-07T08:23:10;20.50;47.50
28374;DHT22;15616;40.148;-102.718;2022-12-07T08:25:36;20.50;47.40
28374;DHT22;15616;40.148;-102.718;2022-12-07T08:28:03;20.50;47.40
28374;DHT22;15616;40.148;-102.718;2022-12-07T08:30:29;20.50;47.50
28374;DHT22;15616;40.148;-102.718;2022-12-07T08:32:56;20.50;47.30
28374;DHT22;15616;40.148;-102.718;2022-12-07T08:35:23;20.50;47.20
28374;DHT22;15616;40.148;-102.718;2022-12-07T08:37:49;20.50;47.10
28374;DHT22;15616;40.148;-102.718;2022-12-07T08:40:15;20.50;47.00
28374;DHT22;15616;40.148;-102.718;2022-12-07T08:42:48;20.50;46.90
28374;DHT22;15616;40.148;-102.718;2022-12-07T08:45:16;20.50;46.80
28374;DHT22;15616;40.148;-102.718;2022-12-07T08:47:47;20.50;46.90
28374;DHT22;15616;40.148;-102.718;2022-12-07T08:50:14;20.50;46.90
28374;DHT22;15616;40.148;-102.718;2022-12-07T08:52:41;20.50;46.90
28374;DHT22;15616;40.148;-102.718;2022-12-07T08:55:10;20.50;46.90
28374;DHT22;15616;40.148;-102.718;2022-12-07T08:57:36;20.40;46.90
28374;DHT22;15616;40.148;-102.718;2022-12-07T09:00:06;20.40;47.00
28374;DHT22;15616;40.148;-102.718;2022-12-07T09:02:32;20.40;47.00
28374;DHT22;15616;40.148;-102.718;2022-12-07T09:04:59;20.40;47.00
28374;DHT22;15616;40.148;-102.718;2022-12-07T09:07:25;20.50;47.00
28374;DHT22;15616;40.148;-102.718;2022-12-07T09:09:51;20.50;47.00
28374;DHT22;15616;40.148;-102.718;2022-12-07T09:12:17;20.50;47.00
28374;DHT22;15616;40.148;-102.718;2022-12-07T09:14:43;20.50;47.00
28374;DHT22;15616;40.148;-102.718;2022-12-07T09:17:11;20.50;47.00
28374;DHT22;15616;40.148;-102.718;2022-12-07T09:19:38;20.50;46.90
28374;DHT22;15616;40.148;-102.718;2022-12-07T09:22:04;20.50;46.80
28374;DHT22;15616;40.148;-102.718;2022-12-07T09:24:31;20.50;46.80
28374;DHT22;15616;40.148;-102.718;2022-12-07T09:26:58;20.50;46.80
28374;DHT22;15616;40.148;-102.718;2022-12-07T09:29:24;20.50;47.00
28374;DHT22;15616;40.148;-102.718;2022-12-07T09:31:51;20.50;47.00
28374;DHT22;15616;40.148;-102.718;2022-12-07T09:34:17;20.50;47.00
28374;DHT22;15616;40.148;-102.718;2022-12-07T09:36:45;20.50;47.00
28374;DHT22;15616;40.148;-102.718;2022-12-07T09:39:11;20.60;46.90
28374;DHT22;15616;40.148;-102.718;2022-12-07T09:41:39;20.60;46.90
28374;DHT22;15616;40.148;-102.718;2022-12-07T09:44:11;20.60;46.90
28374;DHT22;15616;40.148;-102.718;2022-12-07T09:46:40;20.60;46.90
28374;DHT22;15616;40.148;-102.718;2022-12-07T09:49:18;20.60;46.90
28374;DHT22;15616;40.148;-102.718;2022-12-07T09:51:44;20.60;46.90
28374;DHT22;15616;40.148;-102.718;2022-12-07T09:54:15;20.60;47.00
28374;DHT22;15616;40.148;-102.718;2022-12-07T09:56:42;20.60;47.00
28374;DHT22;15616;40.148;-102.718;2022-12-07T09:59:17;20.60;47.00
28374;DHT22;15616;40.148;-102.718;2022-12-07T10:01:46;20.60;47.00
28374;DHT22;15616;40.148;-102.718;2022-12-07T10:04:17;20.50;47.00
28374;DHT22;15616;40.148;-102.718;2022-12-07T10:06:44;20.50;46.90
28374;DHT22;15616;40.148;-102.718;2022-12-07T10:09:13;20.50;46.90
28374;DHT22;15616;40.148;-102.718;2022-12-07T10:12:06;20.50;47.00
28374;DHT22;15616;40.148;-102.718;2022-12-07T10:14:36;20.50;46.90
28374;DHT22;15616;40.148;-102.718;2022-12-07T10:17:12;20.50;47.00
28374;DHT22;15616;40.148;-102.718;2022-12-07T10:19:49;20.50;47.00
28374;DHT22;15616;40.148;-102.718;2022-12-07T10:22:16;20.50;47.00
28374;DHT22;15616;40.148;-102.718;2022-12-07T10:24:47;20.50;47.00
28374;DHT22;15616;40.148;-102.718;2022-12-07T10:27:22;20.50;47.10
28374;DHT22;15616;40.148;-102.718;2022-12-07T10:29:52;20.50;47.10
28374;DHT22;15616;40.148;-102.718;2022-12-07T10:34:44;20.50;47.20
28374;DHT22;15616;40.148;-102.718;2022-12-07T10:39:52;20.50;47.00
28374;DHT22;15616;40.148;-102.718;2022-12-07T10:42:30;20.50;47.10
28374;DHT22;15616;40.148;-102.718;2022-12-07T10:45:16;20.50;47.10
28374;DHT22;15616;40.148;-102.718;2022-12-07T10:53:21;20.50;47.00
28374;DHT22;15616;40.148;-102.718;2022-12-07T10:56:18;20.50;47.00
28374;DHT22;15616;40.148;-102.718;2022-12-07T11:01:46;20.50;47.00
28374;DHT22;15616;40.148;-102.718;2022-12-07T11:04:37;20.60;46.90
28374;DHT22;15616;40.148;-102.718;2022-12-07T11:07:43;20.60;47.00
28374;DHT22;15616;40.148;-102.718;2022-12-07T11:10:48;20.60;47.00
28374;DHT22;15616;40.148;-102.718;2022-12-07T11:13:20;20.60;47.00
28374;DHT22;15616;40.148;-102.718;2022-12-07T11:24:45;20.60;47.00
28374;DHT22;15616;40.148;-102.718;2022-12-07T11:30:26;20.60;47.10
28374;DHT22;15616;40.148;-102.718;2022-12-07T11:38:15;20.60;47.00
28374;DHT22;15616;40.148;-102.718;2022-12-07T11:40:49;20.60;47.00
28374;DHT22;15616;40.148;-102.718;2022-12-07T11:43:26;20.60;47.00
28374;DHT22;15616;40.148;-102.718;2022-12-07T11:46:12;20.60;47.00
28374;DHT22;15616;40.148;-102.718;2022-12-07T11:49:04;20.60;47.00
28374;DHT22;15616;40.148;-102.718;2022-12-07T11:51:37;20.60;47.00
28374;DHT22;15616;40.148;-102.718;2022-12-07T11:54:21;20.60;47.10
28374;DHT22;15616;40.148;-102.718;2022-12-07T11:56:48;20.60;47.00
28374;DHT22;15616;40.148;-102.718;2022-12-07T11:59:31;20.60;47.00
28374;DHT22;15616;40.148;-102.718;2022-12-07T12:02:21;20.60;47.00
28374;DHT22;15616;40.148;-102.718;2022-12-07T12:05:12;20.60;46.90
28374;DHT22;15616;40.148;-102.718;2022-12-07T12:07:40;20.60;47.00
28374;DHT22;15616;40.148;-102.718;2022-12-07T12:10:21;20.60;47.00
28374;DHT22;15616;40.148;-102.718;2022-12-07T12:18:21;20.60;47.00
28374;DHT22;15616;40.148;-102.718;2022-12-07T12:21:10;20.60;47.00
28374;DHT22;15616;40.148;-102.718;2022-12-07T12:23:59;20.60;47.00
28374;DHT22;15616;40.148;-102.718;2022-12-07T12:26:32;20.60;47.00
28374;DHT22;15616;40.148;-102.718;2022-12-07T12:29:05;20.60;47.00
28374;DHT22;15616;40.148;-102.718;2022-12-07T12:31:40;20.60;47.00
28374;DHT22;15616;40.148;-102.718;2022-12-07T12:34:31;20.60;47.00
28374;DHT22;15616;40.148;-102.718;2022-12-07T12:36:58;20.60;47.00
28374;DHT22;15616;40.148;-102.718;2022-12-07T12:39:24;20.60;47.10
28374;DHT22;15616;40.148;-102.718;2022-12-07T12:41:55;20.60;47.10
28374;DHT22;15616;40.148;-102.718;2022-12-07T12:51:50;20.60;46.90
28374;DHT22;15616;40.148;-102.718;2022-12-07T12:54:21;20.60;47.00
28374;DHT22;15616;40.148;-102.718;2022-12-07T13:02:31;20.60;47.10
28374;DHT22;15616;40.148;-102.718;2022-12-07T13:31:23;20.60;47.20
28374;DHT22;15616;40.148;-102.718;2022-12-07T13:33:50;20.60;47.20
28374;DHT22;15616;40.148;-102.718;2022-12-07T13:41:42;20.60;47.20
28374;DHT22;15616;40.148;-102.718;2022-12-07T13:44:13;20.60;47.20
28374;DHT22;15616;40.148;-102.718;2022-12-07T13:49:26;20.60;47.20
28374;DHT22;15616;40.148;-102.718;2022-12-07T13:51:53;20.60;47.30
28374;DHT22;15616;40.148;-102.718;2022-12-07T13:54:20;20.60;47.30
28374;DHT22;15616;40.148;-102.718;2022-12-07T13:56:51;20.60;47.30
28374;DHT22;15616;40.148;-102.718;2022-12-07T13:59:25;20.60;47.30
28374;DHT22;15616;40.148;-102.718;2022-12-07T14:01:52;20.60;47.20
28374;DHT22;15616;40.148;-102.718;2022-12-07T14:06:51;20.60;47.30
28374;DHT22;15616;40.148;-102.718;2022-12-07T14:09:21;20.70;47.30
28374;DHT22;15616;40.148;-102.718;2022-12-07T14:11:49;20.60;47.20
28374;DHT22;15616;40.148;-102.718;2022-12-07T14:14:26;20.60;47.20
28374;DHT22;15616;40.148;-102.718;2022-12-07T14:17:08;20.70;47.30
28374;DHT22;15616;40.148;-102.718;2022-12-07T14:19:54;20.60;47.30
28374;DHT22;15616;40.148;-102.718;2022-12-07T14:22:30;20.60;47.30
28374;DHT22;15616;40.148;-102.718;2022-12-07T14:25:17;20.60;47.30
28374;DHT22;15616;40.148;-102.718;2022-12-07T14:28:00;20.60;47.30
28374;DHT22;15616;40.148;-102.718;2022-12-07T14:30:28;20.60;47.30
28374;DHT22;15616;40.148;-102.718;2022-12-07T14:33:00;20.60;47.30
28374;DHT22;15616;40.148;-102.718;2022-12-07T14:35:27;20.60;47.30
28374;DHT22;15616;40.148;-102.718;2022-12-07T14:37:53;20.60;47.20
28374;DHT22;15616;40.148;-102.718;2022-12-07T14:40:22;20.60;47.20
28374;DHT22;15616;40.148;-102.718;2022-12-07T14:42:51;20.60;47.20
28374;DHT22;15616;40.148;-102.718;2022-12-07T14:45:21;20.70;47.20
28374;DHT22;15616;40.148;-102.718;2022-12-07T14:47:48;20.60;47.20
28374;DHT22;15616;40.148;-102.718;2022-12-07T14:50:17;20.60;47.20
28374;DHT22;15616;40.148;-102.718;2022-12-07T14:52:51;20.70;47.20
28374;DHT22;15616;40.148;-102.718;2022-12-07T14:57:51;20.70;47.30
28374;DHT22;15616;40.148;-102.718;2022-12-07T15:00:19;20.60;47.20
28374;DHT22;15616;40.148;-102.718;2022-12-07T15:02:47;20.60;47.20
28374;DHT22;15616;40.148;-102.718;2022-12-07T15:05:13;20.70;47.30
28374;DHT22;15616;40.148;-102.718;2022-12-07T15:07:39;20.70;47.20
28374;DHT22;15616;40.148;-102.718;2022-12-07T15:10:21;20.60;47.10
28374;DHT22;15616;40.148;-102.718;2022-12-07T15:12:47;20.70;47.20
28374;DHT22;15616;40.148;-102.718;2022-12-07T15:15:13;20.70;47.30
28374;DHT22;15616;40.148;-102.718;2022-12-07T15:17:39;20.70;47.30
28374;DHT22;15616;40.148;-102.718;2022-12-07T15:20:11;20.60;47.30
28374;DHT22;15616;40.148;-102.718;2022-12-07T15:22:38;20.60;47.30
28374;DHT22;15616;40.148;-102.718;2022-12-07T15:25:04;20.60;47.40
28374;DHT22;15616;40.148;-102.718;2022-12-07T15:27:31;20.60;47.40
28374;DHT22;15616;40.148;-102.718;2022-12-07T15:29:57;20.60;47.40
28374;DHT22;15616;40.148;-102.718;2022-12-07T15:32:23;20.70;47.40
28374;DHT22;15616;40.148;-102.718;2022-12-07T15:34:49;20.70;47.30
28374;DHT22;15616;40.148;-102.718;2022-12-07T15:37:16;20.70;47.20
28374;DHT22;15616;40.148;-102.718;2022-12-07T15:39:42;20.70;47.20
28374;DHT22;15616;40.148;-102.718;2022-12-07T15:42:08;20.70;47.20
28374;DHT22;15616;40.148;-102.718;2022-12-07T15:44:34;20.70;47.20
28374;DHT22;15616;40.148;-102.718;2022-12-07T15:47:18;20.70;47.20
28374;DHT22;15616;40.148;-102.718;2022-12-07T15:49:44;20.60;47.10
28374;DHT22;15616;40.148;-102.718;2022-12-07T15:52:10;20.60;47.80
28374;DHT22;15616;40.148;-102.718;2022-12-07T15:54:36;20.70;47.20
28374;DHT22;15616;40.148;-102.718;2022-12-07T15:57:02;20.60;47.20
28374;DHT22;15616;40.148;-102.718;2022-12-07T15:59:29;20.70;47.20
28374;DHT22;15616;40.148;-102.718;2022-12-07T16:01:56;20.60;47.20
28374;DHT22;15616;40.148;-102.718;2022-12-07T16:04:22;20.60;47.20
28374;DHT22;15616;40.148;-102.718;2022-12-07T16:06:49;20.60;47.20
28374;DHT22;15616;40.148;-102.718;2022-12-07T16:09:16;20.60;47.30
28374;DHT22;15616;40.148;-102.718;2022-12-07T16:11:42;20.60;47.30
28374;DHT22;15616;40.148;-102.718;2022-12-07T16:14:08;20.60;47.40
28374;DHT22;15616;40.148;-102.718;2022-12-07T16:16:34;20.50;47.40
28374;DHT22;15616;40.148;-102.718;2022-12-07T16:19:00;20.50;47.40
28374;DHT22;15616;40.148;-102.718;2022-12-07T16:21:26;20.50;47.40
28374;DHT22;15616;40.148;-102.718;2022-12-07T16:23:52;20.50;47.40
28374;DHT22;15616;40.148;-102.718;2022-12-07T16:26:20;20.50;47.40
28374;DHT22;15616;40.148;-102.718;2022-12-07T16:28:49;20.50;47.40
28374;DHT22;15616;40.148;-102.718;2022-12-07T16:31:18;20.50;47.40
28374;DHT22;15616;40.148;-102.718;2022-12-07T16:33:44;20.50;47.40
28374;DHT22;15616;40.148;-102.718;2022-12-07T16:36:11;20.50;47.40
28374;DHT22;15616;40.148;-102.718;2022-12-07T16:38:39;20.60;47.50
28374;DHT22;15616;40.148;-102.718;2022-12-07T16:41:05;20.60;47.50
28374;DHT22;15616;40.148;-102.718;2022-12-07T16:43:32;20.60;47.50
28374;DHT22;15616;40.148;-102.718;2022-12-07T16:45:57;20.60;47.50
28374;DHT22;15616;40.148;-102.718;2022-12-07T16:48:23;20.60;47.50
28374;DHT22;15616;40.148;-102.718;2022-12-07T16:50:49;20.60;47.50
28374;DHT22;15616;40.148;-102.718;2022-12-07T16:53:16;20.60;47.50
28374;DHT22;15616;40.148;-102.718;2022-12-07T16:55:44;20.60;47.50
28374;DHT22;15616;40.148;-102.718;2022-12-07T16:58:11;20.60;47.50
28374;DHT22;15616;40.148;-102.718;2022-12-07T17:00:38;20.60;47.40
28374;DHT22;15616;40.148;-102.718;2022-12-07T17:03:04;20.60;47.50
28374;DHT22;15616;40.148;-102.718;2022-12-07T17:05:30;20.60;47.50
28374;DHT22;15616;40.148;-102.718;2022-12-07T17:07:56;20.50;47.40
28374;DHT22;15616;40.148;-102.718;2022-12-07T17:10:24;20.50;47.40